sensor_id;sensor_type;location;lat;lon;timestamp;pressure;altitude;pressure_sealevel;temperature;humidity
77323;BME280;66384;51.052;9.850;2023-04-25T00:00:11;97782.73;;;6.73;60.69
77323;BME280;66384;51.052;9.850;2023-04-25T00:02:41;97778.89;;;6.70;60.81
77323;BME280;66384;51.052;9.850;2023-04-25T00:05:10;97775.27;;;6.69;61.15
77323;BME280;66384;51.052;9.850;2023-04-25T00:07:39;97781.13;;;6.71;61.00
77323;BME280;66384;51.052;9.850;2023-04-25T00:10:11;97781.80;;;6.71;60.85
77323;BME280;66384;51.052;9.850;2023-04-25T00:12:41;97782.91;;;6.68;60.75
77323;BME280;66384;51.052;9.850;2023-04-25T00:15:11;97779.36;;;6.63;60.69
77323;BME280;66384;51.052;9.850;2023-04-25T00:17:41;97781.59;;;6.57;60.92
77323;BME280;66384;51.052;9.850;2023-04-25T00:20:12;97784.14;;;6.50;60.88
77323;BME280;66384;51.052;9.850;2023-04-25T00:22:41;97781.86;;;6.41;61.24
77323;BME280;66384;51.052;9.850;2023-04-25T00:25:11;97781.50;;;6.34;61.17
77323;BME280;66384;51.052;9.850;2023-04-25T00:27:40;97783.73;;;6.29;61.58
77323;BME280;66384;51.052;9.850;2023-04-25T00:30:12;97787.52;;;6.24;61.52
77323;BME280;66384;51.052;9.850;2023-04-25T00:32:41;97789.41;;;6.19;61.53
77323;BME280;66384;51.052;9.850;2023-04-25T00:35:11;97788.78;;;6.14;61.98
77323;BME280;66384;51.052;9.850;2023-04-25T00:37:40;97791.81;;;6.12;62.31
77323;BME280;66384;51.052;9.850;2023-04-25T00:40:11;97790.63;;;6.13;62.16
77323;BME280;66384;51.052;9.850;2023-04-25T00:42:40;97790.04;;;6.11;62.17
77323;BME280;66384;51.052;9.850;2023-04-25T00:45:14;97779.91;;;6.08;61.98
77323;BME280;66384;51.052;9.850;2023-04-25T00:47:43;97783.30;;;6.02;61.94
77323;BME280;66384;51.052;9.850;2023-04-25T00:50:13;97778.52;;;5.96;62.15
77323;BME280;66384;51.052;9.850;2023-04-25T00:52:44;97781.37;;;5.89;62.15
77323;BME280;66384;51.052;9.850;2023-04-25T00:55:14;97782.25;;;5.85;62.38
77323;BME280;66384;51.052;9.850;2023-04-25T00:57:44;97782.65;;;5.81;62.40
77323;BME280;66384;51.052;9.850;2023-04-25T01:00:14;97783.31;;;5.80;62.64
77323;BME280;66384;51.052;9.850;2023-04-25T01:02:44;97781.11;;;5.80;62.71
77323;BME280;66384;51.052;9.850;2023-04-25T01:05:14;97782.13;;;5.80;62.50
77323;BME280;66384;51.052;9.850;2023-04-25T01:07:44;97779.00;;;5.79;62.51
77323;BME280;66384;51.052;9.850;2023-04-25T01:10:13;97778.23;;;5.76;62.51
77323;BME280;66384;51.052;9.850;2023-04-25T01:12:43;97778.98;;;5.73;62.49
77323;BME280;66384;51.052;9.850;2023-04-25T01:15:12;97780.36;;;5.67;62.49
77323;BME280;66384;51.052;9.850;2023-04-25T01:17:42;97782.48;;;5.64;62.56
77323;BME280;66384;51.052;9.850;2023-04-25T01:20:13;97785.62;;;5.61;62.80
77323;BME280;66384;51.052;9.850;2023-04-25T01:22:43;97788.95;;;5.58;62.94
77323;BME280;66384;51.052;9.850;2023-04-25T01:25:12;97790.30;;;5.58;62.98
77323;BME280;66384;51.052;9.850;2023-04-25T01:27:42;97789.92;;;5.57;63.01
77323;BME280;66384;51.052;9.850;2023-04-25T01:30:12;97788.33;;;5.55;62.65
77323;BME280;66384;51.052;9.850;2023-04-25T01:32:42;97789.11;;;5.53;62.87
77323;BME280;66384;51.052;9.850;2023-04-25T01:35:13;97786.80;;;5.50;62.77
77323;BME280;66384;51.052;9.850;2023-04-25T01:37:44;97786.29;;;5.50;63.17
77323;BME280;66384;51.052;9.850;2023-04-25T01:40:14;97787.52;;;5.45;63.10
77323;BME280;66384;51.052;9.850;2023-04-25T01:42:44;97784.53;;;5.42;63.16
77323;BME280;66384;51.052;9.850;2023-04-25T01:45:14;97784.77;;;5.38;62.95
77323;BME280;66384;51.052;9.850;2023-04-25T01:47:43;97785.60;;;5.33;63.19
77323;BME280;66384;51.052;9.850;2023-04-25T01:50:17;97788.86;;;5.28;63.14
77323;BME280;66384;51.052;9.850;2023-04-25T01:52:48;97788.64;;;5.27;63.27
77323;BME280;66384;51.052;9.850;2023-04-25T01:55:17;97791.33;;;5.26;63.29
77323;BME280;66384;51.052;9.850;2023-04-25T01:57:46;97788.95;;;5.26;63.30
77323;BME280;66384;51.052;9.850;2023-04-25T02:00:16;97786.34;;;5.24;63.22
77323;BME280;66384;51.052;9.850;2023-04-25T02:02:46;97784.13;;;5.24;63.39
77323;BME280;66384;51.052;9.850;2023-04-25T02:05:16;97784.96;;;5.23;63.45
77323;BME280;66384;51.052;9.850;2023-04-25T02:07:45;97784.74;;;5.22;63.36
77323;BME280;66384;51.052;9.850;2023-04-25T02:10:15;97790.88;;;5.22;63.25
77323;BME280;66384;51.052;9.850;2023-04-25T02:12:44;97791.08;;;5.23;63.26
77323;BME280;66384;51.052;9.850;2023-04-25T02:15:14;97789.96;;;5.20;63.16
77323;BME280;66384;51.052;9.850;2023-04-25T02:17:43;97784.23;;;5.17;63.32
77323;BME280;66384;51.052;9.850;2023-04-25T02:20:13;97784.09;;;5.13;63.34
77323;BME280;66384;51.052;9.850;2023-04-25T02:22:43;97783.26;;;5.08;63.31
77323;BME280;66384;51.052;9.850;2023-04-25T02:25:13;97781.05;;;5.03;63.33
77323;BME280;66384;51.052;9.850;2023-04-25T02:27:44;97780.02;;;4.98;63.42
77323;BME280;66384;51.052;9.850;2023-04-25T02:30:14;97777.55;;;4.95;63.74
77323;BME280;66384;51.052;9.850;2023-04-25T02:32:43;97777.70;;;4.95;63.71
77323;BME280;66384;51.052;9.850;2023-04-25T02:35:13;97781.73;;;4.92;63.44
77323;BME280;66384;51.052;9.850;2023-04-25T02:37:43;97780.64;;;4.86;63.53
77323;BME280;66384;51.052;9.850;2023-04-25T02:40:13;97779.89;;;4.78;63.73
77323;BME280;66384;51.052;9.850;2023-04-25T02:42:42;97778.05;;;4.74;64.02
77323;BME280;66384;51.052;9.850;2023-04-25T02:45:13;97780.04;;;4.73;64.46
77323;BME280;66384;51.052;9.850;2023-04-25T02:47:43;97780.18;;;4.72;64.33
77323;BME280;66384;51.052;9.850;2023-04-25T02:50:12;97780.58;;;4.69;64.25
77323;BME280;66384;51.052;9.850;2023-04-25T02:52:41;97783.30;;;4.64;64.23
77323;BME280;66384;51.052;9.850;2023-04-25T02:55:11;97787.98;;;4.62;64.37
77323;BME280;66384;51.052;9.850;2023-04-25T02:57:41;97788.77;;;4.59;64.69
77323;BME280;66384;51.052;9.850;2023-04-25T03:00:12;97787.88;;;4.58;64.47
77323;BME280;66384;51.052;9.850;2023-04-25T03:02:42;97793.25;;;4.56;64.39
77323;BME280;66384;51.052;9.850;2023-04-25T03:05:11;97798.02;;;4.51;64.37
77323;BME280;66384;51.052;9.850;2023-04-25T03:07:40;97797.52;;;4.47;64.60
77323;BME280;66384;51.052;9.850;2023-04-25T03:10:12;97795.77;;;4.45;64.80
77323;BME280;66384;51.052;9.850;2023-04-25T03:12:41;97794.20;;;4.45;64.80
77323;BME280;66384;51.052;9.850;2023-04-25T03:15:11;97795.16;;;4.43;64.85
77323;BME280;66384;51.052;9.850;2023-04-25T03:17:40;97790.20;;;4.42;64.77
77323;BME280;66384;51.052;9.850;2023-04-25T03:20:11;97788.18;;;4.38;65.06
77323;BME280;66384;51.052;9.850;2023-04-25T03:22:39;97790.08;;;4.34;65.00
77323;BME280;66384;51.052;9.850;2023-04-25T03:25:09;97789.36;;;4.33;64.86
77323;BME280;66384;51.052;9.850;2023-04-25T03:27:38;97790.60;;;4.29;65.16
77323;BME280;66384;51.052;9.850;2023-04-25T03:30:09;97795.30;;;4.27;65.52
77323;BME280;66384;51.052;9.850;2023-04-25T03:32:39;97798.54;;;4.28;65.56
77323;BME280;66384;51.052;9.850;2023-04-25T03:35:08;97796.37;;;4.29;65.39
77323;BME280;66384;51.052;9.850;2023-04-25T03:37:38;97799.77;;;4.29;65.64
77323;BME280;66384;51.052;9.850;2023-04-25T03:40:09;97803.00;;;4.28;65.52
77323;BME280;66384;51.052;9.850;2023-04-25T03:42:39;97801.80;;;4.28;65.50
77323;BME280;66384;51.052;9.850;2023-04-25T03:45:10;97803.67;;;4.28;65.36
77323;BME280;66384;51.052;9.850;2023-04-25T03:47:39;97802.97;;;4.28;65.41
77323;BME280;66384;51.052;9.850;2023-04-25T03:50:10;97802.99;;;4.29;65.09
77323;BME280;66384;51.052;9.850;2023-04-25T03:52:39;97803.70;;;4.29;65.35
77323;BME280;66384;51.052;9.850;2023-04-25T03:55:09;97802.16;;;4.29;64.90
77323;BME280;66384;51.052;9.850;2023-04-25T03:57:38;97804.10;;;4.27;65.22
77323;BME280;66384;51.052;9.850;2023-04-25T04:00:10;97805.58;;;4.25;65.16
77323;BME280;66384;51.052;9.850;2023-04-25T04:02:40;97802.02;;;4.25;65.28
77323;BME280;66384;51.052;9.850;2023-04-25T04:05:10;97803.38;;;4.25;65.23
77323;BME280;66384;51.052;9.850;2023-04-25T04:07:39;97807.92;;;4.28;65.47
77323;BME280;66384;51.052;9.850;2023-04-25T04:10:11;97808.58;;;4.27;65.39
77323;BME280;66384;51.052;9.850;2023-04-25T04:12:40;97806.11;;;4.30;65.39
77323;BME280;66384;51.052;9.850;2023-04-25T04:15:11;97806.77;;;4.29;65.38
77323;BME280;66384;51.052;9.850;2023-04-25T04:17:40;97810.98;;;4.28;65.46
77323;BME280;66384;51.052;9.850;2023-04-25T04:20:11;97813.50;;;4.27;65.39
77323;BME280;66384;51.052;9.850;2023-04-25T04:22:40;97815.34;;;4.26;65.26
77323;BME280;66384;51.052;9.850;2023-04-25T04:25:10;97813.12;;;4.26;65.34
77323;BME280;66384;51.052;9.850;2023-04-25T04:27:40;97814.92;;;4.29;65.43
77323;BME280;66384;51.052;9.850;2023-04-25T04:30:10;97820.11;;;4.31;65.65
77323;BME280;66384;51.052;9.850;2023-04-25T04:32:40;97825.28;;;4.33;65.56
77323;BME280;66384;51.052;9.850;2023-04-25T04:35:10;97831.13;;;4.35;65.82
77323;BME280;66384;51.052;9.850;2023-04-25T04:37:39;97832.27;;;4.38;65.89
77323;BME280;66384;51.052;9.850;2023-04-25T04:40:10;97831.27;;;4.43;66.19
77323;BME280;66384;51.052;9.850;2023-04-25T04:42:40;97832.46;;;4.48;66.15
77323;BME280;66384;51.052;9.850;2023-04-25T04:45:10;97829.90;;;4.52;66.40
77323;BME280;66384;51.052;9.850;2023-04-25T04:47:40;97828.22;;;4.58;66.46
77323;BME280;66384;51.052;9.850;2023-04-25T04:50:11;97830.60;;;4.63;66.47
77323;BME280;66384;51.052;9.850;2023-04-25T04:52:41;97837.02;;;4.66;66.74
77323;BME280;66384;51.052;9.850;2023-04-25T04:55:10;97836.46;;;4.69;67.35
77323;BME280;66384;51.052;9.850;2023-04-25T04:57:40;97830.30;;;4.78;67.82
77323;BME280;66384;51.052;9.850;2023-04-25T05:00:11;97828.08;;;4.87;67.53
77323;BME280;66384;51.052;9.850;2023-04-25T05:02:41;97828.96;;;4.94;67.71
77323;BME280;66384;51.052;9.850;2023-04-25T05:05:10;97835.46;;;4.99;67.64
77323;BME280;66384;51.052;9.850;2023-04-25T05:07:39;97839.03;;;5.04;67.69
77323;BME280;66384;51.052;9.850;2023-04-25T05:10:10;97844.05;;;5.11;67.86
77323;BME280;66384;51.052;9.850;2023-04-25T05:12:39;97843.34;;;5.16;67.56
77323;BME280;66384;51.052;9.850;2023-04-25T05:15:10;97840.42;;;5.20;67.75
77323;BME280;66384;51.052;9.850;2023-04-25T05:17:39;97837.08;;;5.27;67.78
77323;BME280;66384;51.052;9.850;2023-04-25T05:20:10;97840.04;;;5.35;67.49
77323;BME280;66384;51.052;9.850;2023-04-25T05:22:39;97841.63;;;5.41;67.32
77323;BME280;66384;51.052;9.850;2023-04-25T05:25:10;97842.35;;;5.48;67.15
77323;BME280;66384;51.052;9.850;2023-04-25T05:27:39;97848.70;;;5.55;66.98
77323;BME280;66384;51.052;9.850;2023-04-25T05:30:10;97855.23;;;5.62;66.94
77323;BME280;66384;51.052;9.850;2023-04-25T05:32:39;97853.55;;;5.67;66.80
77323;BME280;66384;51.052;9.850;2023-04-25T05:35:10;97860.59;;;5.75;67.08
77323;BME280;66384;51.052;9.850;2023-04-25T05:37:39;97857.60;;;5.87;67.47
77323;BME280;66384;51.052;9.850;2023-04-25T05:40:10;97861.65;;;6.02;67.05
77323;BME280;66384;51.052;9.850;2023-04-25T05:42:39;97860.09;;;6.13;66.50
77323;BME280;66384;51.052;9.850;2023-04-25T05:45:10;97861.58;;;6.22;66.41
77323;BME280;66384;51.052;9.850;2023-04-25T05:47:39;97866.50;;;6.33;66.12
77323;BME280;66384;51.052;9.850;2023-04-25T05:50:10;97869.67;;;6.42;65.95
77323;BME280;66384;51.052;9.850;2023-04-25T05:52:39;97872.28;;;6.50;65.60
77323;BME280;66384;51.052;9.850;2023-04-25T05:55:10;97871.61;;;6.62;65.67
77323;BME280;66384;51.052;9.850;2023-04-25T05:57:39;97874.27;;;6.72;65.26
77323;BME280;66384;51.052;9.850;2023-04-25T06:00:11;97877.77;;;6.80;65.13
77323;BME280;66384;51.052;9.850;2023-04-25T06:02:41;97877.98;;;6.88;64.93
77323;BME280;66384;51.052;9.850;2023-04-25T06:05:11;97878.31;;;6.94;65.09
77323;BME280;66384;51.052;9.850;2023-04-25T06:07:40;97880.85;;;7.00;64.98
77323;BME280;66384;51.052;9.850;2023-04-25T06:10:10;97884.34;;;7.02;64.83
77323;BME280;66384;51.052;9.850;2023-04-25T06:12:40;97888.91;;;7.07;64.85
77323;BME280;66384;51.052;9.850;2023-04-25T06:15:10;97887.33;;;7.12;64.92
77323;BME280;66384;51.052;9.850;2023-04-25T06:17:39;97894.16;;;7.18;64.99
77323;BME280;66384;51.052;9.850;2023-04-25T06:20:11;97889.00;;;7.23;65.08
77323;BME280;66384;51.052;9.850;2023-04-25T06:22:40;97896.40;;;7.31;65.15
77323;BME280;66384;51.052;9.850;2023-04-25T06:25:10;97897.73;;;7.37;64.97
77323;BME280;66384;51.052;9.850;2023-04-25T06:27:39;97895.92;;;7.40;64.74
77323;BME280;66384;51.052;9.850;2023-04-25T06:30:10;97900.58;;;7.41;64.68
77323;BME280;66384;51.052;9.850;2023-04-25T06:32:40;97899.64;;;7.38;64.81
77323;BME280;66384;51.052;9.850;2023-04-25T06:35:10;97905.48;;;7.39;65.06
77323;BME280;66384;51.052;9.850;2023-04-25T06:37:40;97902.89;;;7.38;65.21
77323;BME280;66384;51.052;9.850;2023-04-25T06:40:11;97907.21;;;7.40;65.29
77323;BME280;66384;51.052;9.850;2023-04-25T06:42:40;97906.43;;;7.36;65.28
77323;BME280;66384;51.052;9.850;2023-04-25T06:45:11;97909.32;;;7.36;65.66
77323;BME280;66384;51.052;9.850;2023-04-25T06:47:39;97909.84;;;7.36;65.60
77323;BME280;66384;51.052;9.850;2023-04-25T06:50:09;97911.20;;;7.36;65.76
77323;BME280;66384;51.052;9.850;2023-04-25T06:52:39;97915.68;;;7.36;66.09
77323;BME280;66384;51.052;9.850;2023-04-25T06:55:09;97912.48;;;7.38;66.08
77323;BME280;66384;51.052;9.850;2023-04-25T06:57:39;97917.21;;;7.43;66.07
77323;BME280;66384;51.052;9.850;2023-04-25T07:00:10;97919.69;;;7.45;66.09
77323;BME280;66384;51.052;9.850;2023-04-25T07:02:39;97925.54;;;7.47;66.01
77323;BME280;66384;51.052;9.850;2023-04-25T07:05:11;97925.73;;;7.48;65.91
77323;BME280;66384;51.052;9.850;2023-04-25T07:07:40;97929.52;;;7.49;65.75
77323;BME280;66384;51.052;9.850;2023-04-25T07:10:10;97932.41;;;7.48;65.61
77323;BME280;66384;51.052;9.850;2023-04-25T07:12:39;97936.89;;;7.49;65.70
77323;BME280;66384;51.052;9.850;2023-04-25T07:15:10;97941.67;;;7.49;65.58
77323;BME280;66384;51.052;9.850;2023-04-25T07:17:39;97946.59;;;7.47;65.77
77323;BME280;66384;51.052;9.850;2023-04-25T07:20:10;97948.87;;;7.49;65.55
77323;BME280;66384;51.052;9.850;2023-04-25T07:22:39;97949.55;;;7.49;65.65
77323;BME280;66384;51.052;9.850;2023-04-25T07:25:09;97949.45;;;7.52;65.23
77323;BME280;66384;51.052;9.850;2023-04-25T07:27:38;97950.57;;;7.56;65.36
77323;BME280;66384;51.052;9.850;2023-04-25T07:30:10;97962.30;;;7.59;65.44
77323;BME280;66384;51.052;9.850;2023-04-25T07:32:40;97961.66;;;7.61;65.21
77323;BME280;66384;51.052;9.850;2023-04-25T07:35:10;97965.13;;;7.64;65.44
77323;BME280;66384;51.052;9.850;2023-04-25T07:37:39;97971.48;;;7.64;65.46
77323;BME280;66384;51.052;9.850;2023-04-25T07:40:10;97978.30;;;7.63;65.39
77323;BME280;66384;51.052;9.850;2023-04-25T07:42:39;97976.98;;;7.58;65.03
77323;BME280;66384;51.052;9.850;2023-04-25T07:45:10;97979.65;;;7.55;64.85
77323;BME280;66384;51.052;9.850;2023-04-25T07:47:38;97983.64;;;7.64;66.00
77323;BME280;66384;51.052;9.850;2023-04-25T07:50:09;97986.20;;;7.91;66.38
77323;BME280;66384;51.052;9.850;2023-04-25T07:52:39;97992.05;;;8.27;65.75
77323;BME280;66384;51.052;9.850;2023-04-25T07:55:09;98000.76;;;8.45;64.41
77323;BME280;66384;51.052;9.850;2023-04-25T07:57:39;98000.95;;;8.47;63.73
77323;BME280;66384;51.052;9.850;2023-04-25T08:00:12;98007.03;;;8.43;63.69
77323;BME280;66384;51.052;9.850;2023-04-25T08:02:42;98008.52;;;8.55;64.10
77323;BME280;66384;51.052;9.850;2023-04-25T08:05:12;98005.11;;;8.71;63.35
77323;BME280;66384;51.052;9.850;2023-04-25T08:07:42;98007.16;;;8.71;63.05
77323;BME280;66384;51.052;9.850;2023-04-25T08:10:12;98003.85;;;8.69;63.00
77323;BME280;66384;51.052;9.850;2023-04-25T08:12:41;98007.88;;;8.65;62.97
77323;BME280;66384;51.052;9.850;2023-04-25T08:15:12;98006.86;;;8.57;63.03
77323;BME280;66384;51.052;9.850;2023-04-25T08:17:42;98012.79;;;8.47;62.79
77323;BME280;66384;51.052;9.850;2023-04-25T08:20:13;98014.48;;;8.33;62.87
77323;BME280;66384;51.052;9.850;2023-04-25T08:22:42;98019.08;;;8.25;62.88
77323;BME280;66384;51.052;9.850;2023-04-25T08:25:11;98018.11;;;8.20;63.40
77323;BME280;66384;51.052;9.850;2023-04-25T08:27:41;98022.26;;;8.22;63.92
77323;BME280;66384;51.052;9.850;2023-04-25T08:30:11;98027.85;;;8.26;63.95
77323;BME280;66384;51.052;9.850;2023-04-25T08:32:40;98030.77;;;8.27;63.32
77323;BME280;66384;51.052;9.850;2023-04-25T08:35:10;98021.52;;;8.27;63.33
77323;BME280;66384;51.052;9.850;2023-04-25T08:37:40;98026.97;;;8.26;62.88
77323;BME280;66384;51.052;9.850;2023-04-25T08:40:13;98028.93;;;8.21;62.92
77323;BME280;66384;51.052;9.850;2023-04-25T08:42:43;98026.45;;;8.18;62.67
77323;BME280;66384;51.052;9.850;2023-04-25T08:45:13;98030.02;;;8.16;62.80
77323;BME280;66384;51.052;9.850;2023-04-25T08:47:43;98031.75;;;8.17;62.39
77323;BME280;66384;51.052;9.850;2023-04-25T08:50:14;98034.75;;;8.21;62.08
77323;BME280;66384;51.052;9.850;2023-04-25T08:52:45;98041.11;;;8.29;61.73
77323;BME280;66384;51.052;9.850;2023-04-25T08:55:17;98044.63;;;8.39;61.02
77323;BME280;66384;51.052;9.850;2023-04-25T08:57:47;98049.67;;;8.49;61.38
77323;BME280;66384;51.052;9.850;2023-04-25T09:00:17;98048.59;;;8.61;61.58
77323;BME280;66384;51.052;9.850;2023-04-25T09:02:48;98049.05;;;8.73;61.28
77323;BME280;66384;51.052;9.850;2023-04-25T09:05:17;98042.21;;;8.82;60.88
77323;BME280;66384;51.052;9.850;2023-04-25T09:07:47;98042.76;;;8.91;60.54
77323;BME280;66384;51.052;9.850;2023-04-25T09:10:17;98043.38;;;8.96;60.28
77323;BME280;66384;51.052;9.850;2023-04-25T09:12:46;98045.29;;;8.97;59.95
77323;BME280;66384;51.052;9.850;2023-04-25T09:15:31;98046.15;;;8.97;59.51
77323;BME280;66384;51.052;9.850;2023-04-25T09:18:00;98048.96;;;9.00;59.51
77323;BME280;66384;51.052;9.850;2023-04-25T09:20:30;98051.07;;;9.03;59.01
77323;BME280;66384;51.052;9.850;2023-04-25T09:23:06;98058.43;;;9.02;59.12
77323;BME280;66384;51.052;9.850;2023-04-25T09:25:39;98058.19;;;8.99;58.70
77323;BME280;66384;51.052;9.850;2023-04-25T09:28:08;98058.63;;;8.95;58.76
77323;BME280;66384;51.052;9.850;2023-04-25T09:30:38;98061.30;;;8.93;58.63
77323;BME280;66384;51.052;9.850;2023-04-25T09:33:08;98067.82;;;8.93;58.80
77323;BME280;66384;51.052;9.850;2023-04-25T09:35:39;98072.67;;;8.95;58.76
77323;BME280;66384;51.052;9.850;2023-04-25T09:38:13;98077.39;;;8.98;58.84
77323;BME280;66384;51.052;9.850;2023-04-25T09:40:47;98082.77;;;9.01;58.76
77323;BME280;66384;51.052;9.850;2023-04-25T09:43:22;98084.74;;;8.97;57.74
77323;BME280;66384;51.052;9.850;2023-04-25T09:45:53;98089.67;;;8.95;58.10
77323;BME280;66384;51.052;9.850;2023-04-25T09:48:25;98098.91;;;8.94;58.14
77323;BME280;66384;51.052;9.850;2023-04-25T09:51:07;98095.18;;;8.96;57.87
77323;BME280;66384;51.052;9.850;2023-04-25T09:53:38;98097.23;;;8.96;57.35
77323;BME280;66384;51.052;9.850;2023-04-25T09:56:09;98095.49;;;8.95;57.13
77323;BME280;66384;51.052;9.850;2023-04-25T09:58:38;98091.29;;;9.06;57.22
77323;BME280;66384;51.052;9.850;2023-04-25T10:01:08;98090.55;;;9.19;55.17
77323;BME280;66384;51.052;9.850;2023-04-25T10:03:39;98089.96;;;9.32;53.20
77323;BME280;66384;51.052;9.850;2023-04-25T10:06:11;98086.66;;;9.46;52.37
77323;BME280;66384;51.052;9.850;2023-04-25T10:08:43;98090.52;;;9.68;52.12
77323;BME280;66384;51.052;9.850;2023-04-25T10:11:13;98094.17;;;9.87;51.89
77323;BME280;66384;51.052;9.850;2023-04-25T10:13:42;98097.63;;;10.07;51.62
77323;BME280;66384;51.052;9.850;2023-04-25T10:16:12;98100.95;;;10.19;51.52
77323;BME280;66384;51.052;9.850;2023-04-25T10:18:42;98101.52;;;10.30;51.06
77323;BME280;66384;51.052;9.850;2023-04-25T10:21:12;98106.47;;;10.38;50.54
77323;BME280;66384;51.052;9.850;2023-04-25T10:23:42;98103.77;;;10.41;48.60
77323;BME280;66384;51.052;9.850;2023-04-25T10:26:12;98110.79;;;10.38;48.17
77323;BME280;66384;51.052;9.850;2023-04-25T10:28:56;98111.74;;;10.35;47.13
77323;BME280;66384;51.052;9.850;2023-04-25T10:31:26;98109.15;;;10.34;47.81
77323;BME280;66384;51.052;9.850;2023-04-25T10:33:55;98110.36;;;10.35;47.62
77323;BME280;66384;51.052;9.850;2023-04-25T10:36:25;98115.04;;;10.36;47.21
77323;BME280;66384;51.052;9.850;2023-04-25T10:38:58;98114.39;;;10.38;46.95
77323;BME280;66384;51.052;9.850;2023-04-25T10:41:47;98118.05;;;10.42;46.73
77323;BME280;66384;51.052;9.850;2023-04-25T10:44:17;98123.27;;;10.45;46.52
77323;BME280;66384;51.052;9.850;2023-04-25T10:46:47;98125.26;;;10.40;45.14
77323;BME280;66384;51.052;9.850;2023-04-25T10:52:18;98134.80;;;10.20;45.46
77323;BME280;66384;51.052;9.850;2023-04-25T10:54:55;98137.22;;;10.11;46.15
77323;BME280;66384;51.052;9.850;2023-04-25T10:57:32;98145.54;;;10.06;46.52
77323;BME280;66384;51.052;9.850;2023-04-25T11:00:10;98153.66;;;9.99;47.45
77323;BME280;66384;51.052;9.850;2023-04-25T11:02:42;98153.61;;;9.87;47.69
77323;BME280;66384;51.052;9.850;2023-04-25T11:05:19;98156.17;;;9.79;48.38
77323;BME280;66384;51.052;9.850;2023-04-25T11:07:52;98158.14;;;9.74;48.49
77323;BME280;66384;51.052;9.850;2023-04-25T11:10:26;98159.23;;;9.69;48.91
77323;BME280;66384;51.052;9.850;2023-04-25T11:12:56;98157.15;;;9.68;48.91
77323;BME280;66384;51.052;9.850;2023-04-25T11:15:27;98159.00;;;9.66;48.98
77323;BME280;66384;51.052;9.850;2023-04-25T11:17:57;98161.58;;;9.66;48.87
77323;BME280;66384;51.052;9.850;2023-04-25T11:20:27;98161.45;;;9.68;48.55
77323;BME280;66384;51.052;9.850;2023-04-25T11:22:58;98156.73;;;9.73;48.66
77323;BME280;66384;51.052;9.850;2023-04-25T11:25:29;98156.92;;;9.82;48.65
77323;BME280;66384;51.052;9.850;2023-04-25T11:27:59;98154.84;;;9.89;47.67
77323;BME280;66384;51.052;9.850;2023-04-25T11:30:29;98155.38;;;9.99;47.39
77323;BME280;66384;51.052;9.850;2023-04-25T11:32:59;98150.30;;;10.12;45.70
77323;BME280;66384;51.052;9.850;2023-04-25T11:35:28;98148.77;;;10.22;45.12
77323;BME280;66384;51.052;9.850;2023-04-25T11:37:58;98146.77;;;10.33;44.28
77323;BME280;66384;51.052;9.850;2023-04-25T11:40:27;98147.23;;;10.38;41.91
77323;BME280;66384;51.052;9.850;2023-04-25T11:42:56;98149.72;;;10.34;41.05
77323;BME280;66384;51.052;9.850;2023-04-25T11:45:29;98168.73;;;10.23;41.98
77323;BME280;66384;51.052;9.850;2023-04-25T11:47:59;98173.67;;;10.21;42.66
77323;BME280;66384;51.052;9.850;2023-04-25T11:50:29;98179.13;;;10.19;42.45
77323;BME280;66384;51.052;9.850;2023-04-25T11:52:58;98182.29;;;10.14;41.86
77323;BME280;66384;51.052;9.850;2023-04-25T11:55:31;98181.42;;;10.05;41.65
77323;BME280;66384;51.052;9.850;2023-04-25T11:58:01;98179.13;;;10.01;41.89
77323;BME280;66384;51.052;9.850;2023-04-25T12:00:32;98183.11;;;10.03;42.13
77323;BME280;66384;51.052;9.850;2023-04-25T12:03:02;98183.48;;;10.05;41.87
77323;BME280;66384;51.052;9.850;2023-04-25T12:05:32;98184.64;;;10.11;43.07
77323;BME280;66384;51.052;9.850;2023-04-25T12:08:15;98182.95;;;10.21;42.94
77323;BME280;66384;51.052;9.850;2023-04-25T12:10:46;98174.64;;;10.34;43.07
77323;BME280;66384;51.052;9.850;2023-04-25T12:13:23;98183.27;;;10.45;42.97
77323;BME280;66384;51.052;9.850;2023-04-25T12:15:55;98185.68;;;10.55;42.29
77323;BME280;66384;51.052;9.850;2023-04-25T12:18:25;98186.65;;;10.61;40.42
77323;BME280;66384;51.052;9.850;2023-04-25T12:20:55;98188.23;;;10.63;39.11
77323;BME280;66384;51.052;9.850;2023-04-25T12:23:28;98180.35;;;10.65;39.84
77323;BME280;66384;51.052;9.850;2023-04-25T12:25:58;98181.17;;;10.73;40.25
77323;BME280;66384;51.052;9.850;2023-04-25T12:28:27;98187.17;;;10.82;39.71
77323;BME280;66384;51.052;9.850;2023-04-25T12:30:59;98190.86;;;10.86;39.42
77323;BME280;66384;51.052;9.850;2023-04-25T12:33:32;98186.33;;;10.83;40.44
77323;BME280;66384;51.052;9.850;2023-04-25T12:36:04;98195.59;;;10.81;39.43
77323;BME280;66384;51.052;9.850;2023-04-25T12:38:40;98196.45;;;10.71;39.33
77323;BME280;66384;51.052;9.850;2023-04-25T12:41:10;98204.02;;;10.61;39.67
77323;BME280;66384;51.052;9.850;2023-04-25T12:43:39;98204.55;;;10.52;39.43
77323;BME280;66384;51.052;9.850;2023-04-25T12:46:08;98206.80;;;10.44;39.11
77323;BME280;66384;51.052;9.850;2023-04-25T12:48:38;98210.23;;;10.35;38.75
77323;BME280;66384;51.052;9.850;2023-04-25T12:51:07;98212.16;;;10.28;39.71
77323;BME280;66384;51.052;9.850;2023-04-25T12:53:36;98214.30;;;10.24;40.15
77323;BME280;66384;51.052;9.850;2023-04-25T12:56:07;98218.60;;;10.24;40.47
77323;BME280;66384;51.052;9.850;2023-04-25T12:58:37;98224.84;;;10.19;40.23
77323;BME280;66384;51.052;9.850;2023-04-25T13:01:06;98229.33;;;10.12;39.91
77323;BME280;66384;51.052;9.850;2023-04-25T13:03:36;98229.94;;;10.08;39.93
77323;BME280;66384;51.052;9.850;2023-04-25T13:06:06;98227.20;;;10.08;40.17
77323;BME280;66384;51.052;9.850;2023-04-25T13:08:36;98225.36;;;10.11;40.39
77323;BME280;66384;51.052;9.850;2023-04-25T13:11:07;98220.80;;;10.14;40.57
77323;BME280;66384;51.052;9.850;2023-04-25T13:13:36;98218.36;;;10.21;40.54
77323;BME280;66384;51.052;9.850;2023-04-25T13:16:07;98215.71;;;10.26;40.87
77323;BME280;66384;51.052;9.850;2023-04-25T13:18:36;98220.64;;;10.30;39.45
77323;BME280;66384;51.052;9.850;2023-04-25T13:21:05;98220.25;;;10.28;38.75
77323;BME280;66384;51.052;9.850;2023-04-25T13:23:35;98222.21;;;10.25;38.82
77323;BME280;66384;51.052;9.850;2023-04-25T13:26:05;98221.73;;;10.18;38.95
77323;BME280;66384;51.052;9.850;2023-04-25T13:28:34;98222.37;;;10.15;38.98